Time;durP1;ratioP1;P1;durP2;ratioP2;P2;SDS_P1;SDS_P2;PMS_P1;PMS_P2;Temp;Humidity;BMP_temperature;BMP_pressure;BME280_temperature;BME280_humidity;BME280_pressure;Samples;Min_cycle;Max_cycle;Signal;HPM_P1;HPM_P2
2024/01/16 00:00:15;;;;;;;23.48;8.60;;;0.30;99.90;;;;;;5015414;28;20073;-62
2024/01/16 00:02:41;;;;;;;29.38;11.30;;;0.30;99.90;;;;;;5016786;28;20481;-63
2024/01/16 00:05:07;;;;;;;24.98;9.30;;;0.30;99.90;;;;;;5019069;28;20484;-62
2024/01/16 00:07:34;;;;;;;27.33;9.10;;;0.30;99.90;;;;;;5019467;28;20026;-62
2024/01/16 00:10:00;;;;;;;19.92;7.65;;;0.30;99.90;;;;;;5020471;28;20022;-62
2024/01/16 00:12:25;;;;;;;17.88;7.70;;;0.30;99.90;;;;;;5018656;28;20037;-62
2024/01/16 00:14:51;;;;;;;29.98;13.13;;;0.30;99.90;;;;;;5021411;28;20025;-62
2024/01/16 00:17:17;;;;;;;20.75;7.63;;;0.30;99.90;;;;;;5020193;28;20064;-62
2024/01/16 00:19:42;;;;;;;24.92;7.75;;;0.30;99.90;;;;;;5020633;28;20377;-62
2024/01/16 00:22:08;;;;;;;25.08;9.75;;;0.30;99.90;;;;;;5024973;28;20105;-62
2024/01/16 00:24:33;;;;;;;17.10;8.02;;;0.30;99.90;;;;;;5017481;28;20134;-62
2024/01/16 00:26:59;;;;;;;12.27;5.15;;;0.30;99.90;;;;;;5016010;28;20535;-62
2024/01/16 00:29:25;;;;;;;19.88;6.95;;;0.30;99.90;;;;;;5019938;28;20033;-62
2024/01/16 00:31:50;;;;;;;13.98;6.00;;;0.30;99.90;;;;;;5024572;28;20775;-63
2024/01/16 00:34:16;;;;;;;21.98;8.50;;;0.30;99.90;;;;;;5021552;28;20055;-62
2024/01/16 00:36:42;;;;;;;21.27;7.15;;;0.30;99.90;;;;;;5020990;28;20164;-62
2024/01/16 00:39:08;;;;;;;22.08;8.52;;;0.30;99.90;;;;;;5021379;28;20487;-62
2024/01/16 00:41:33;;;;;;;14.15;5.38;;;0.30;99.90;;;;;;5022939;28;20060;-62
2024/01/16 00:43:59;;;;;;;23.83;8.63;;;0.30;99.90;;;;;;5017861;28;20053;-63
2024/01/16 00:46:24;;;;;;;18.92;8.05;;;0.30;99.90;;;;;;5017815;28;20091;-63
2024/01/16 00:48:50;;;;;;;29.52;7.45;;;0.30;99.90;;;;;;5014695;28;20530;-62
2024/01/16 00:51:15;;;;;;;20.90;9.60;;;0.30;99.90;;;;;;5020819;28;20044;-62
2024/01/16 00:53:42;;;;;;;20.88;6.45;;;0.30;99.90;;;;;;5017092;28;20052;-62
2024/01/16 00:56:08;;;;;;;27.83;13.73;;;0.30;99.90;;;;;;5021670;28;20106;-62
2024/01/16 00:58:34;;;;;;;15.05;6.53;;;0.30;99.90;;;;;;5022108;28;20033;-63
2024/01/16 01:00:59;;;;;;;15.85;6.43;;;0.20;99.90;;;;;;5020817;28;20013;-62
2024/01/16 01:03:25;;;;;;;21.52;8.80;;;0.20;99.90;;;;;;5017144;28;20083;-63
2024/01/16 01:05:51;;;;;;;27.83;13.00;;;0.30;99.90;;;;;;5020543;28;20056;-62
2024/01/16 01:08:19;;;;;;;23.20;8.93;;;0.30;99.90;;;;;;5015314;28;20029;-63
2024/01/16 01:10:44;;;;;;;23.08;8.15;;;0.20;99.90;;;;;;5017063;28;20083;-62
2024/01/16 01:13:10;;;;;;;23.30;8.63;;;0.30;99.90;;;;;;5017361;28;20541;-62
2024/01/16 01:15:36;;;;;;;22.20;7.88;;;0.30;99.90;;;;;;5016289;28;20029;-63
2024/01/16 01:18:01;;;;;;;21.67;8.65;;;0.30;99.90;;;;;;5013570;28;20079;-62
2024/01/16 01:20:27;;;;;;;24.67;9.60;;;0.30;99.90;;;;;;5013591;28;20532;-62
2024/01/16 01:22:52;;;;;;;17.75;7.55;;;0.20;99.90;;;;;;5018368;28;20009;-62
2024/01/16 01:25:18;;;;;;;18.65;7.47;;;0.30;99.90;;;;;;5015234;28;20018;-63
2024/01/16 01:27:45;;;;;;;20.55;7.22;;;0.20;99.90;;;;;;5015033;28;20115;-62
2024/01/16 01:30:11;;;;;;;24.33;7.80;;;0.20;99.90;;;;;;5031045;28;20033;-63
2024/01/16 01:32:37;;;;;;;13.93;4.88;;;0.10;99.90;;;;;;5010489;28;20024;-63
2024/01/16 01:35:04;;;;;;;19.98;7.45;;;0.10;99.90;;;;;;5015856;28;20020;-63
2024/01/16 01:37:30;;;;;;;19.80;8.85;;;0.00;99.90;;;;;;5013435;28;20160;-63
2024/01/16 01:39:55;;;;;;;30.13;8.18;;;-0.10;99.90;;;;;;5014819;28;20129;-64
2024/01/16 01:42:21;;;;;;;18.48;5.43;;;-0.10;99.90;;;;;;5015862;28;20025;-63
2024/01/16 01:44:47;;;;;;;20.90;7.90;;;-0.10;99.90;;;;;;5016341;28;20108;-63
2024/01/16 01:47:13;;;;;;;21.10;7.82;;;-0.10;99.90;;;;;;5019985;28;20025;-62
2024/01/16 01:49:39;;;;;;;29.27;8.90;;;0.00;99.90;;;;;;5020857;28;20091;-63
2024/01/16 01:52:05;;;;;;;26.88;9.00;;;0.00;99.90;;;;;;5016483;28;20018;-63
2024/01/16 01:54:36;;;;;;;20.58;7.10;;;0.00;99.90;;;;;;5018160;28;20029;-62
2024/01/16 01:57:03;;;;;;;19.00;8.13;;;0.00;99.90;;;;;;5014753;28;20429;-62
2024/01/16 01:59:30;;;;;;;12.77;4.40;;;0.00;99.90;;;;;;5012986;28;20048;-62
2024/01/16 02:01:56;;;;;;;19.85;7.53;;;0.00;99.90;;;;;;5017568;28;20116;-63
2024/01/16 02:04:24;;;;;;;23.15;8.40;;;-0.10;99.90;;;;;;5010063;28;20092;-63
2024/01/16 02:06:50;;;;;;;15.25;6.03;;;-0.10;99.90;;;;;;5010715;28;20469;-62
2024/01/16 02:09:15;;;;;;;15.73;5.38;;;-0.10;99.90;;;;;;5010951;28;20032;-62
2024/01/16 02:11:42;;;;;;;14.05;5.38;;;0.00;99.90;;;;;;5017835;28;20504;-62
2024/01/16 02:14:08;;;;;;;19.75;7.03;;;0.00;99.90;;;;;;5022042;28;20095;-62
2024/01/16 02:16:39;;;;;;;20.50;7.90;;;0.00;99.90;;;;;;5022230;28;20350;-62
2024/01/16 02:19:05;;;;;;;17.95;5.93;;;0.00;99.90;;;;;;5013977;28;20044;-62
2024/01/16 02:21:38;;;;;;;17.42;6.20;;;0.00;99.90;;;;;;5012061;28;20014;-62
2024/01/16 02:24:08;;;;;;;23.58;6.65;;;0.00;99.90;;;;;;5016209;28;20014;-62
2024/01/16 02:26:33;;;;;;;16.35;7.63;;;0.00;99.90;;;;;;5012620;28;20076;-62
2024/01/16 02:29:02;;;;;;;31.42;13.57;;;0.00;99.90;;;;;;5015916;28;20022;-62
2024/01/16 02:31:27;;;;;;;25.33;7.82;;;0.00;99.90;;;;;;5013573;28;20037;-62
2024/01/16 02:33:53;;;;;;;15.30;6.28;;;0.00;99.90;;;;;;5010165;28;20439;-62
2024/01/16 02:36:18;;;;;;;24.15;9.20;;;0.00;99.90;;;;;;5014465;28;20544;-62
2024/01/16 02:38:44;;;;;;;13.95;4.97;;;0.00;99.90;;;;;;5012823;28;20030;-62
2024/01/16 02:41:13;;;;;;;15.20;5.68;;;0.00;99.90;;;;;;5015478;28;20025;-62
2024/01/16 02:43:39;;;;;;;18.13;5.95;;;0.00;99.90;;;;;;5010495;28;20477;-62
2024/01/16 02:46:04;;;;;;;18.63;7.20;;;0.00;99.90;;;;;;5013165;28;20022;-63
2024/01/16 02:48:30;;;;;;;21.08;6.22;;;0.00;99.90;;;;;;5016949;28;20488;-62
2024/01/16 02:50:56;;;;;;;18.27;6.13;;;0.00;99.90;;;;;;5020391;28;20021;-62
2024/01/16 02:53:21;;;;;;;21.55;8.68;;;0.00;99.90;;;;;;5016662;28;20350;-62
2024/01/16 02:55:47;;;;;;;11.15;5.13;;;0.00;99.90;;;;;;5017867;28;20044;-62
2024/01/16 02:58:12;;;;;;;16.27;6.47;;;-0.10;99.90;;;;;;5022635;28;20525;-62
2024/01/16 03:00:38;;;;;;;11.30;4.63;;;-0.10;99.90;;;;;;5016754;28;20044;-62
2024/01/16 03:03:04;;;;;;;14.23;5.57;;;-0.10;99.90;;;;;;5014922;28;20382;-63
2024/01/16 03:05:30;;;;;;;16.95;6.47;;;-0.10;99.90;;;;;;5017138;28;20026;-63
2024/01/16 03:07:55;;;;;;;20.30;7.15;;;-0.10;99.90;;;;;;5016123;28;20026;-63
2024/01/16 03:10:21;;;;;;;12.30;5.47;;;-0.10;99.90;;;;;;5018069;28;20497;-63
2024/01/16 03:12:47;;;;;;;16.58;5.97;;;-0.10;99.90;;;;;;5017533;28;20029;-63
2024/01/16 03:15:12;;;;;;;17.65;7.63;;;-0.10;99.90;;;;;;5015143;28;20461;-63
2024/01/16 03:17:38;;;;;;;24.67;11.00;;;-0.10;99.90;;;;;;5022001;28;20049;-63
2024/01/16 03:20:04;;;;;;;15.98;5.63;;;-0.10;99.90;;;;;;5023297;28;20060;-63
2024/01/16 03:22:29;;;;;;;23.73;7.85;;;-0.10;99.90;;;;;;5014541;28;20028;-64
2024/01/16 03:24:55;;;;;;;15.40;6.15;;;0.00;99.90;;;;;;5014087;28;20032;-63
2024/01/16 03:27:21;;;;;;;22.08;8.90;;;0.00;99.90;;;;;;5014498;28;20026;-63
2024/01/16 03:29:46;;;;;;;21.45;7.93;;;0.00;99.90;;;;;;5015985;28;20025;-63
2024/01/16 03:32:12;;;;;;;22.17;9.07;;;0.10;99.90;;;;;;5024954;28;20513;-63
2024/01/16 03:34:37;;;;;;;23.02;8.23;;;0.10;99.90;;;;;;5019316;28;20109;-63
2024/01/16 03:37:04;;;;;;;18.73;7.88;;;0.10;99.90;;;;;;5017786;28;20038;-64
2024/01/16 03:39:29;;;;;;;18.48;7.78;;;0.10;99.90;;;;;;5013007;28;20026;-63
2024/01/16 03:41:55;;;;;;;20.98;7.70;;;0.10;99.90;;;;;;5015089;28;20374;-64
2024/01/16 03:44:20;;;;;;;29.25;10.57;;;0.10;99.90;;;;;;5019733;28;20382;-63
2024/01/16 03:46:46;;;;;;;20.73;7.80;;;0.10;99.90;;;;;;5020926;28;20032;-63
2024/01/16 03:49:12;;;;;;;20.33;6.63;;;0.20;99.90;;;;;;5021424;28;20037;-63
2024/01/16 03:51:37;;;;;;;29.90;10.57;;;0.20;99.90;;;;;;5024205;28;20421;-63
2024/01/16 03:54:04;;;;;;;21.60;7.93;;;0.10;99.90;;;;;;5024091;28;20026;-63
2024/01/16 03:56:29;;;;;;;38.88;13.13;;;0.10;99.90;;;;;;5023286;28;20172;-63
2024/01/16 03:58:55;;;;;;;31.52;11.25;;;0.10;99.90;;;;;;5027282;28;20108;-63
2024/01/16 04:01:33;;;;;;;32.25;13.15;;;0.20;99.90;;;;;;5017720;28;20025;-63
2024/01/16 04:03:59;;;;;;;30.50;12.98;;;0.20;99.90;;;;;;5019974;28;20093;-62
2024/01/16 04:06:26;;;;;;;32.28;13.88;;;0.20;99.90;;;;;;5024355;28;20121;-62
2024/01/16 04:08:52;;;;;;;30.77;11.95;;;0.20;99.90;;;;;;5023629;28;20064;-62
2024/01/16 04:11:17;;;;;;;35.75;14.27;;;0.20;99.90;;;;;;5020869;28;20113;-63
2024/01/16 04:13:43;;;;;;;31.42;11.35;;;0.20;99.90;;;;;;5024922;28;20121;-62
2024/01/16 04:16:09;;;;;;;30.70;12.20;;;0.20;99.90;;;;;;5013678;28;20028;-63
2024/01/16 04:18:37;;;;;;;32.60;13.45;;;0.20;99.90;;;;;;5021857;28;20559;-63
2024/01/16 04:21:03;;;;;;;36.33;13.85;;;0.20;99.90;;;;;;5016813;28;20010;-63
2024/01/16 04:23:29;;;;;;;38.15;12.98;;;0.20;99.90;;;;;;5023777;28;20076;-63
2024/01/16 04:25:54;;;;;;;28.40;11.13;;;0.20;99.90;;;;;;5018575;28;20077;-63
2024/01/16 04:28:20;;;;;;;31.80;12.80;;;0.20;99.90;;;;;;5017481;28;20041;-63
2024/01/16 04:30:46;;;;;;;27.23;12.18;;;0.20;99.90;;;;;;5019175;28;20025;-62
2024/01/16 04:33:11;;;;;;;33.55;13.18;;;0.30;99.90;;;;;;5016614;28;20042;-63
2024/01/16 04:35:37;;;;;;;29.45;13.98;;;0.30;99.90;;;;;;5020406;28;20249;-63
2024/01/16 04:38:03;;;;;;;32.60;14.32;;;0.30;99.90;;;;;;5018510;28;20025;-63
2024/01/16 04:40:28;;;;;;;33.45;12.18;;;0.30;99.90;;;;;;5020474;28;20038;-63
2024/01/16 04:42:54;;;;;;;35.45;13.07;;;0.20;99.90;;;;;;5020570;28;20059;-63
2024/01/16 04:45:19;;;;;;;32.92;12.57;;;0.20;99.90;;;;;;5023410;28;20032;-63
2024/01/16 04:47:45;;;;;;;20.27;10.20;;;0.30;99.90;;;;;;5024058;28;20026;-63
2024/01/16 04:50:11;;;;;;;24.00;11.52;;;0.30;99.90;;;;;;5023473;28;20025;-63
2024/01/16 04:52:37;;;;;;;17.63;5.95;;;0.30;99.90;;;;;;5017007;28;20022;-63
2024/01/16 04:55:03;;;;;;;25.08;10.68;;;0.30;99.90;;;;;;5024321;28;20025;-63
2024/01/16 04:57:29;;;;;;;25.63;10.90;;;0.30;99.90;;;;;;5030833;28;20112;-63
2024/01/16 04:59:54;;;;;;;26.23;10.70;;;0.30;99.90;;;;;;5023024;28;20561;-62
2024/01/16 05:02:20;;;;;;;33.05;11.77;;;0.30;99.90;;;;;;5018935;28;20485;-64
2024/01/16 05:04:49;;;;;;;37.22;13.30;;;0.30;99.90;;;;;;5022499;28;20112;-63
2024/01/16 05:07:15;;;;;;;25.67;10.52;;;0.20;99.90;;;;;;5018506;28;20021;-63
2024/01/16 05:09:40;;;;;;;32.03;11.73;;;0.20;99.90;;;;;;5016519;28;20026;-63
2024/01/16 05:12:06;;;;;;;27.48;9.73;;;0.20;99.90;;;;;;5014835;28;20136;-63
2024/01/16 05:14:32;;;;;;;33.75;14.18;;;0.20;99.90;;;;;;5022018;28;20038;-63
2024/01/16 05:16:57;;;;;;;23.17;9.73;;;0.20;99.90;;;;;;5021966;28;20133;-62
2024/01/16 05:19:23;;;;;;;29.58;12.10;;;0.20;99.90;;;;;;5023165;28;20037;-63
2024/01/16 05:21:48;;;;;;;30.10;12.63;;;2.50;99.90;;;;;;5022652;28;20025;-63
2024/01/16 05:24:14;;;;;;;30.17;10.93;;;0.20;99.90;;;;;;5019703;28;20532;-63
2024/01/16 05:26:40;;;;;;;35.72;11.20;;;0.20;99.90;;;;;;5020074;28;20044;-63
2024/01/16 05:29:06;;;;;;;32.10;12.48;;;0.30;99.90;;;;;;5021808;28;20044;-63
2024/01/16 05:31:32;;;;;;;25.05;10.40;;;0.30;99.90;;;;;;5019692;28;20088;-62
2024/01/16 05:33:58;;;;;;;24.65;9.15;;;0.30;99.90;;;;;;5012446;28;20037;-63
2024/01/16 05:36:24;;;;;;;23.10;10.00;;;0.30;99.90;;;;;;5014080;28;20436;-62
2024/01/16 05:38:50;;;;;;;26.02;10.90;;;0.20;99.90;;;;;;5017153;28;20455;-62
2024/01/16 05:41:16;;;;;;;20.08;9.27;;;0.30;99.90;;;;;;5016418;28;20053;-62
2024/01/16 05:43:41;;;;;;;31.27;15.13;;;0.30;99.90;;;;;;5016024;28;20057;-62
2024/01/16 05:46:07;;;;;;;28.60;10.63;;;0.30;99.90;;;;;;5014555;28;20029;-62
2024/01/16 05:48:32;;;;;;;27.98;10.73;;;0.30;99.90;;;;;;5016180;28;20026;-62
2024/01/16 05:50:58;;;;;;;21.35;9.48;;;0.20;99.90;;;;;;5009151;28;20056;-62
2024/01/16 05:53:23;;;;;;;32.83;14.13;;;0.20;99.90;;;;;;5016908;28;22121;-62
2024/01/16 05:55:49;;;;;;;27.85;9.38;;;0.20;99.90;;;;;;5021379;28;20029;-62
2024/01/16 05:58:15;;;;;;;23.15;8.88;;;0.20;99.90;;;;;;5018513;28;20478;-62
2024/01/16 06:00:40;;;;;;;28.58;12.45;;;0.30;99.90;;;;;;5020382;28;20026;-62
2024/01/16 06:03:06;;;;;;;24.25;11.32;;;0.30;99.90;;;;;;5020221;28;20091;-62
2024/01/16 06:05:31;;;;;;;19.17;7.72;;;0.30;99.90;;;;;;5024012;28;20488;-62
2024/01/16 06:07:57;;;;;;;25.45;9.60;;;0.30;99.90;;;;;;5019288;28;20032;-64
2024/01/16 06:10:23;;;;;;;27.23;9.63;;;0.30;99.90;;;;;;5017950;28;20696;-62
2024/01/16 06:12:49;;;;;;;30.67;13.18;;;0.30;99.90;;;;;;5022705;28;20024;-63
2024/01/16 06:15:14;;;;;;;19.70;7.30;;;0.30;99.90;;;;;;5019110;28;20039;-63
2024/01/16 06:17:40;;;;;;;19.42;7.88;;;0.30;99.90;;;;;;5020947;28;20069;-63
2024/01/16 06:20:06;;;;;;;21.70;8.25;;;0.30;99.90;;;;;;5020135;28;20129;-62
2024/01/16 06:22:32;;;;;;;19.42;6.35;;;0.30;99.90;;;;;;5021213;28;20056;-63
2024/01/16 06:24:57;;;;;;;21.02;7.65;;;0.30;99.90;;;;;;5024084;28;20049;-63
2024/01/16 06:27:23;;;;;;;22.73;9.63;;;0.30;99.90;;;;;;5022194;28;20041;-67
2024/01/16 06:29:49;;;;;;;28.38;10.02;;;0.40;99.90;;;;;;5017980;28;20369;-63
2024/01/16 06:32:14;;;;;;;24.70;9.90;;;0.40;99.90;;;;;;5025025;28;20124;-63
2024/01/16 06:34:40;;;;;;;24.48;10.05;;;0.30;99.90;;;;;;5027480;28;20040;-62
2024/01/16 06:37:06;;;;;;;23.05;8.60;;;0.30;99.90;;;;;;5023872;28;20632;-62
2024/01/16 06:39:31;;;;;;;17.08;7.03;;;0.30;99.90;;;;;;5026339;28;20040;-62
2024/01/16 06:41:57;;;;;;;18.60;7.50;;;0.30;99.90;;;;;;5028346;28;20067;-62
2024/01/16 06:44:22;;;;;;;20.13;7.85;;;0.30;99.90;;;;;;5028447;28;20362;-63
2024/01/16 06:46:48;;;;;;;24.95;8.43;;;0.30;99.90;;;;;;5026117;28;20026;-62
2024/01/16 06:49:14;;;;;;;25.67;10.65;;;0.30;99.90;;;;;;5028024;28;20033;-63
2024/01/16 06:51:39;;;;;;;28.10;10.00;;;0.30;99.90;;;;;;5031598;28;20679;-62
2024/01/16 06:54:05;;;;;;;23.67;10.13;;;0.30;99.90;;;;;;5028700;28;20037;-62
2024/01/16 06:56:31;;;;;;;28.55;10.80;;;0.30;99.90;;;;;;5024677;28;20037;-63
2024/01/16 06:58:56;;;;;;;33.55;12.10;;;0.30;99.90;;;;;;5026961;28;20057;-63
2024/01/16 07:01:22;;;;;;;24.42;10.32;;;0.30;99.90;;;;;;5029564;28;20025;-63
2024/01/16 07:03:48;;;;;;;18.50;8.98;;;0.30;99.90;;;;;;5028335;28;20044;-62
2024/01/16 07:06:13;;;;;;;19.42;7.47;;;0.30;99.90;;;;;;5030566;28;20457;-62
2024/01/16 07:08:39;;;;;;;9.82;4.53;;;0.30;99.90;;;;;;5030569;28;20021;-63
2024/01/16 07:11:07;;;;;;;22.98;10.40;;;0.30;99.90;;;;;;5018731;28;20388;-63
2024/01/16 07:13:34;;;;;;;17.52;8.27;;;0.30;99.90;;;;;;5028068;28;20115;-63
2024/01/16 07:15:59;;;;;;;24.02;11.25;;;0.30;99.90;;;;;;5024465;28;20037;-64
2024/01/16 07:18:27;;;;;;;26.65;10.57;;;0.20;99.90;;;;;;5025692;28;20496;-63
2024/01/16 07:20:52;;;;;;;30.25;11.50;;;0.20;99.90;;;;;;5025689;28;20049;-63
2024/01/16 07:23:18;;;;;;;31.63;10.43;;;0.30;99.90;;;;;;5014789;28;20116;-63
2024/01/16 07:25:44;;;;;;;26.30;10.23;;;0.20;99.90;;;;;;5020536;28;20028;-63
2024/01/16 07:28:09;;;;;;;25.17;9.90;;;0.30;99.90;;;;;;5018297;28;20041;-63
2024/01/16 07:30:36;;;;;;;18.23;7.10;;;0.30;99.90;;;;;;5019951;28;20416;-63
2024/01/16 07:33:03;;;;;;;28.77;10.35;;;0.30;99.90;;;;;;5016767;28;20045;-63
2024/01/16 07:35:28;;;;;;;31.70;13.10;;;0.20;99.90;;;;;;5015772;28;20104;-63
2024/01/16 07:37:54;;;;;;;20.30;9.88;;;0.20;99.90;;;;;;5017861;28;20496;-63
2024/01/16 07:40:20;;;;;;;22.35;9.25;;;0.20;99.90;;;;;;5012927;28;20044;-63
2024/01/16 07:42:46;;;;;;;28.35;11.10;;;0.20;99.90;;;;;;5014996;28;20017;-64
2024/01/16 07:45:11;;;;;;;30.45;14.45;;;0.30;99.90;;;;;;5012092;28;20041;-63
2024/01/16 07:47:37;;;;;;;20.48;7.63;;;0.20;99.90;;;;;;5021994;28;20477;-63
2024/01/16 07:50:03;;;;;;;29.52;10.45;;;0.20;99.90;;;;;;5020520;28;20069;-63
2024/01/16 07:52:29;;;;;;;26.27;9.73;;;0.20;99.90;;;;;;5019321;28;20045;-62
2024/01/16 07:54:55;;;;;;;31.95;10.85;;;0.30;99.90;;;;;;5018156;28;20096;-62
2024/01/16 07:57:20;;;;;;;23.13;8.40;;;0.30;99.90;;;;;;5019021;28;20132;-63
2024/01/16 07:59:46;;;;;;;20.90;10.20;;;0.30;99.90;;;;;;5019401;28;20026;-63
2024/01/16 08:02:12;;;;;;;20.65;8.40;;;0.30;99.90;;;;;;5009678;28;20037;-62
2024/01/16 08:04:37;;;;;;;23.10;9.13;;;0.30;99.90;;;;;;5017010;28;20274;-62
2024/01/16 08:07:03;;;;;;;25.02;10.90;;;0.30;99.90;;;;;;5014692;28;20025;-64
2024/01/16 08:09:29;;;;;;;27.20;11.02;;;0.30;99.90;;;;;;5011051;28;20114;-63
2024/01/16 08:11:54;;;;;;;32.33;12.40;;;0.30;99.90;;;;;;5018932;28;20060;-62
2024/01/16 08:14:20;;;;;;;15.75;8.18;;;0.30;99.90;;;;;;5013844;28;20059;-62
2024/01/16 08:16:46;;;;;;;23.65;10.15;;;0.30;99.90;;;;;;5018591;28;20042;-62
2024/01/16 08:19:11;;;;;;;27.63;10.10;;;0.30;99.90;;;;;;5010741;28;20046;-62
2024/01/16 08:21:37;;;;;;;20.02;8.80;;;1.80;99.90;;;;;;5019111;28;20026;-62
2024/01/16 08:24:03;;;;;;;21.92;7.32;;;0.30;99.90;;;;;;5013990;28;20022;-63
2024/01/16 08:26:28;;;;;;;23.25;9.82;;;0.30;99.90;;;;;;5013363;28;20034;-64
2024/01/16 08:28:54;;;;;;;17.65;5.95;;;0.30;99.90;;;;;;5015285;28;20141;-64
2024/01/16 08:31:20;;;;;;;23.42;8.65;;;0.30;99.90;;;;;;5014823;28;20091;-63
2024/01/16 08:33:45;;;;;;;21.17;7.38;;;0.30;99.90;;;;;;5011770;28;20061;-64
2024/01/16 08:36:11;;;;;;;21.25;9.10;;;0.30;99.90;;;;;;5025280;28;20033;-63
2024/01/16 08:38:37;;;;;;;22.15;7.28;;;0.30;99.90;;;;;;5016264;28;20261;-63
2024/01/16 08:41:06;;;;;;;24.13;9.88;;;0.30;99.90;;;;;;5019108;28;20116;-63
2024/01/16 08:43:35;;;;;;;20.48;6.65;;;0.30;99.90;;;;;;5012881;28;20018;-63
2024/01/16 08:46:00;;;;;;;11.90;4.50;;;0.20;99.90;;;;;;5013022;28;20101;-63
2024/01/16 08:48:26;;;;;;;18.73;7.13;;;0.20;99.90;;;;;;5018194;28;20112;-63
2024/01/16 08:50:54;;;;;;;23.23;6.75;;;0.20;99.90;;;;;;5028188;28;20036;-63
2024/01/16 08:53:19;;;;;;;16.05;4.90;;;0.20;99.90;;;;;;5023906;28;20128;-63
2024/01/16 08:55:45;;;;;;;14.43;5.03;;;0.20;99.90;;;;;;5026793;28;20109;-63
2024/01/16 08:58:11;;;;;;;15.75;3.67;;;0.20;99.90;;;;;;5026461;28;20087;-63
2024/01/16 09:00:37;;;;;;;11.18;3.55;;;0.30;99.90;;;;;;5025246;28;20135;-63
2024/01/16 09:03:04;;;;;;;18.15;5.82;;;0.30;99.90;;;;;;5024239;28;20018;-63
2024/01/16 09:05:29;;;;;;;12.27;4.38;;;0.30;99.90;;;;;;5026673;28;20056;-63
2024/01/16 09:07:55;;;;;;;12.98;4.75;;;0.30;99.90;;;;;;5026228;28;20481;-63
2024/01/16 09:10:20;;;;;;;13.43;3.78;;;0.40;99.90;;;;;;5026495;28;20040;-64
2024/01/16 09:12:47;;;;;;;15.57;4.88;;;0.40;99.90;;;;;;5025294;28;20033;-64
2024/01/16 09:15:13;;;;;;;13.27;3.80;;;0.40;99.90;;;;;;5021570;28;20044;-64
2024/01/16 09:17:39;;;;;;;14.85;3.22;;;0.40;99.90;;;;;;5028756;28;20049;-63
2024/01/16 09:20:06;;;;;;;15.25;4.28;;;0.40;99.90;;;;;;5023891;28;20044;-63
2024/01/16 09:22:32;;;;;;;13.65;3.78;;;0.50;99.90;;;;;;5026317;28;20373;-63
2024/01/16 09:24:58;;;;;;;20.77;3.88;;;0.40;99.90;;;;;;5024188;28;20029;-63
2024/01/16 09:27:23;;;;;;;12.55;3.75;;;0.40;99.90;;;;;;5025984;28;20030;-62
2024/01/16 09:29:49;;;;;;;22.05;3.97;;;0.40;99.90;;;;;;5026188;28;20082;-63
2024/01/16 09:32:14;;;;;;;10.95;3.20;;;0.40;99.90;;;;;;5023995;28;20392;-63
2024/01/16 09:34:40;;;;;;;12.30;3.50;;;0.40;99.90;;;;;;5024655;28;20026;-63
2024/01/16 09:37:06;;;;;;;12.93;3.28;;;0.40;99.90;;;;;;5025695;28;20021;-63
2024/01/16 09:39:34;;;;;;;11.63;2.97;;;0.40;99.90;;;;;;5026327;28;20029;-63
2024/01/16 09:42:03;;;;;;;16.45;3.45;;;0.40;99.90;;;;;;5025488;28;20028;-63
2024/01/16 09:44:29;;;;;;;8.35;2.75;;;0.50;99.90;;;;;;5021642;28;20284;-63
2024/01/16 09:46:58;;;;;;;14.32;3.67;;;0.50;99.90;;;;;;5024557;28;20551;-62
2024/01/16 09:49:25;;;;;;;9.57;2.37;;;0.60;99.90;;;;;;5026613;28;20037;-62
2024/01/16 09:51:50;;;;;;;12.77;2.72;;;0.60;99.90;;;;;;5024669;28;20321;-62
2024/01/16 09:54:16;;;;;;;18.95;3.72;;;0.60;99.90;;;;;;5024155;28;20022;-62
2024/01/16 09:56:45;;;;;;;10.70;3.03;;;0.70;99.90;;;;;;5024057;28;20140;-63
2024/01/16 09:59:15;;;;;;;11.38;3.80;;;0.80;99.90;;;;;;5028219;28;20026;-63
2024/01/16 10:01:42;;;;;;;7.95;3.00;;;0.80;99.90;;;;;;5030012;28;20030;-63
2024/01/16 10:04:08;;;;;;;12.15;3.25;;;0.80;99.90;;;;;;5027556;28;20520;-63
2024/01/16 10:06:34;;;;;;;9.85;3.17;;;0.90;99.90;;;;;;5029711;28;20024;-63
2024/01/16 10:09:00;;;;;;;6.28;1.95;;;0.90;99.90;;;;;;5029125;28;20060;-64
2024/01/16 10:11:25;;;;;;;13.07;3.15;;;0.90;99.90;;;;;;5029897;28;20056;-63
2024/01/16 10:13:51;;;;;;;11.23;3.28;;;0.90;99.90;;;;;;5027953;28;20080;-63
2024/01/16 10:16:17;;;;;;;10.65;3.08;;;0.80;99.90;;;;;;5031153;28;20029;-62
2024/01/16 10:18:43;;;;;;;11.73;3.20;;;0.80;99.90;;;;;;5029623;28;20435;-62
2024/01/16 10:21:22;;;;;;;10.55;3.00;;;0.80;99.90;;;;;;5028836;28;20425;-62
2024/01/16 10:23:49;;;;;;;12.30;3.08;;;0.80;99.90;;;;;;5017037;28;20109;-63
2024/01/16 10:26:15;;;;;;;8.02;2.15;;;0.80;99.90;;;;;;5019671;28;20140;-63
2024/01/16 10:28:42;;;;;;;16.90;3.40;;;0.70;99.90;;;;;;5017980;28;20033;-62
2024/01/16 10:31:13;;;;;;;8.88;2.67;;;0.70;99.90;;;;;;5015835;28;20030;-62
2024/01/16 10:33:40;;;;;;;8.05;2.08;;;0.80;99.90;;;;;;5017041;28;20442;-62
2024/01/16 10:36:10;;;;;;;7.43;1.92;;;0.80;99.90;;;;;;5020716;28;20025;-63
2024/01/16 10:38:38;;;;;;;8.85;2.60;;;0.90;99.90;;;;;;5026961;28;20026;-63
2024/01/16 10:41:10;;;;;;;12.82;3.53;;;0.90;99.90;;;;;;5022321;28;20110;-64
2024/01/16 10:43:37;;;;;;;12.43;3.58;;;0.90;99.90;;;;;;5024997;28;20037;-62
2024/01/16 10:46:09;;;;;;;6.78;2.40;;;0.80;99.90;;;;;;5021180;28;20022;-63
2024/01/16 10:48:35;;;;;;;6.68;2.45;;;0.90;99.90;;;;;;5018858;28;20029;-63
2024/01/16 10:51:02;;;;;;;10.73;2.92;;;0.90;99.90;;;;;;5019777;28;20022;-62
2024/01/16 10:53:32;;;;;;;7.72;2.60;;;1.00;99.90;;;;;;5024339;28;20022;-62
2024/01/16 10:56:01;;;;;;;7.57;2.67;;;1.10;99.90;;;;;;5017496;28;20037;-61
2024/01/16 10:58:30;;;;;;;11.38;3.00;;;1.20;99.90;;;;;;5025199;28;20453;-63
2024/01/16 11:01:00;;;;;;;11.63;3.40;;;1.20;99.90;;;;;;5025368;28;20025;-62
2024/01/16 11:03:31;;;;;;;;;;;1.30;99.90;;;;;;5019160;28;20476;-63
2024/01/16 11:05:57;;;;;;;9.45;2.70;;;1.40;99.90;;;;;;5024437;28;19967;-63
2024/01/16 11:08:29;;;;;;;6.13;2.33;;;1.50;99.90;;;;;;5021689;28;20030;-62
2024/01/16 11:10:55;;;;;;;7.43;2.60;;;1.60;99.90;;;;;;5013007;28;20374;-62
2024/01/16 11:13:22;;;;;;;8.25;2.38;;;1.60;99.90;;;;;;5019703;28;20032;-63
2024/01/16 11:15:49;;;;;;;11.45;2.85;;;1.90;99.90;;;;;;5021386;28;20037;-62
2024/01/16 11:18:16;;;;;;;10.55;3.22;;;1.90;99.90;;;;;;5021329;28;20050;-62
2024/01/16 11:20:42;;;;;;;13.88;3.20;;;2.20;99.90;;;;;;5015688;28;20432;-63
2024/01/16 11:23:10;;;;;;;14.27;3.05;;;2.60;99.90;;;;;;5022858;28;20022;-63
2024/01/16 11:25:36;;;;;;;15.32;3.00;;;3.40;99.90;;;;;;5017946;28;20060;-63
2024/01/16 11:28:13;;;;;;;12.20;3.63;;;3.70;99.90;;;;;;5016885;28;20289;-62
2024/01/16 11:30:39;;;;;;;5.32;2.40;;;3.80;99.90;;;;;;5018598;28;20033;-62
2024/01/16 11:33:07;;;;;;;8.50;2.63;;;3.80;99.90;;;;;;5017178;28;20059;-62
2024/01/16 11:35:34;;;;;;;9.88;2.70;;;3.90;99.90;;;;;;5021518;28;20137;-62
2024/01/16 11:38:05;;;;;;;8.13;2.60;;;4.00;99.90;;;;;;5014273;28;20029;-62
2024/01/16 11:40:32;;;;;;;5.50;1.85;;;4.20;99.90;;;;;;5027253;28;20056;-62
2024/01/16 11:42:58;;;;;;;10.77;3.15;;;4.20;99.90;;;;;;5020179;28;20156;-62
2024/01/16 11:45:27;;;;;;;8.20;2.83;;;4.10;99.90;;;;;;5016554;28;20052;-62
2024/01/16 11:48:13;;;;;;;5.40;2.15;;;4.20;99.90;;;;;;5013848;28;20034;-62
2024/01/16 11:50:39;;;;;;;7.38;2.33;;;4.30;99.90;;;;;;5014769;28;20125;-62
2024/01/16 11:53:05;;;;;;;10.55;2.45;;;4.40;99.90;;;;;;5018299;28;20040;-63
2024/01/16 11:55:37;;;;;;;12.35;3.10;;;4.10;99.90;;;;;;5020326;28;20037;-62
2024/01/16 11:58:27;;;;;;;8.02;2.92;;;3.90;99.90;;;;;;5011236;28;20432;-62
2024/01/16 12:00:53;;;;;;;7.78;2.72;;;3.70;99.90;;;;;;5023681;28;20052;-62
2024/01/16 12:03:21;;;;;;;14.77;3.30;;;3.70;99.90;;;;;;5019713;28;20500;-62
2024/01/16 12:05:59;;;;;;;12.60;3.65;;;3.60;99.90;;;;;;5013335;28;20037;-62
2024/01/16 12:08:26;;;;;;;7.03;2.38;;;3.20;99.90;;;;;;5018143;28;20037;-62
2024/01/16 12:10:52;;;;;;;7.10;2.75;;;3.20;99.90;;;;;;5015405;28;20034;-62
2024/01/16 12:13:17;;;;;;;13.32;3.15;;;3.60;99.90;;;;;;5020179;28;20055;-62
2024/01/16 12:15:43;;;;;;;10.57;3.78;;;4.90;99.90;;;;;;5016687;28;20022;-62
2024/01/16 12:18:09;;;;;;;8.57;3.50;;;4.90;99.90;;;;;;5015138;28;20060;-62
2024/01/16 12:20:38;;;;;;;11.88;3.15;;;5.10;99.90;;;;;;5020380;28;20445;-62
2024/01/16 12:23:06;;;;;;;11.60;2.90;;;5.50;99.90;;;;;;5020049;28;20021;-62
2024/01/16 12:25:34;;;;;;;11.35;3.83;;;6.20;97.60;;;;;;5016278;28;20028;-61
2024/01/16 12:28:01;;;;;;;9.63;3.10;;;6.20;96.30;;;;;;5028879;28;20440;-62
2024/01/16 12:30:31;;;;;;;12.20;3.58;;;5.40;99.50;;;;;;5018146;28;20411;-62
2024/01/16 12:33:10;;;;;;;12.50;3.50;;;4.90;99.10;;;;;;5017549;28;20112;-63
2024/01/16 12:35:46;;;;;;;8.70;2.45;;;4.70;99.90;;;;;;5018719;28;20060;-62
2024/01/16 12:38:13;;;;;;;7.95;2.67;;;4.80;99.90;;;;;;5021834;28;20125;-62
2024/01/16 12:40:48;;;;;;;15.07;3.70;;;4.80;99.90;;;;;;5017154;28;20053;-63